createdAt,value
2022-09-25T00:02:50.716Z,21.60
2022-09-25T00:07:53.286Z,18.25
2022-09-25T00:12:55.808Z,21.05
2022-09-25T00:17:59.626Z,20.75
2022-09-25T00:23:02.339Z,16.17
2022-09-25T00:28:06.066Z,19.10
2022-09-25T00:33:10.069Z,16.20
2022-09-25T00:38:12.520Z,25.60
2022-09-25T00:43:15.934Z,23.58
2022-09-25T00:48:19.803Z,24.52
2022-09-25T00:53:28.324Z,21.83
2022-09-25T00:58:34.127Z,19.77
2022-09-25T01:03:39.350Z,21.55
2022-09-25T01:08:42.958Z,16.90
2022-09-25T01:13:45.939Z,14.17
2022-09-25T01:19:02.407Z,17.52
2022-09-25T01:24:22.024Z,18.55
2022-09-25T01:29:31.611Z,19.20
2022-09-25T01:34:42.223Z,16.52
2022-09-25T01:39:48.143Z,17.25
2022-09-25T01:44:59.052Z,16.35
2022-09-25T01:50:04.727Z,15.82
2022-09-25T01:55:10.959Z,14.88
2022-09-25T02:00:19.208Z,16.02
2022-09-25T02:05:26.939Z,16.73
2022-09-25T02:10:34.949Z,16.80
2022-09-25T02:15:43.998Z,14.02
2022-09-25T02:20:50.379Z,16.27
2022-09-25T02:26:02.241Z,18.98
2022-09-25T02:31:11.168Z,16.85
2022-09-25T02:36:18.726Z,14.65
2022-09-25T02:41:34.904Z,20.42
2022-09-25T02:46:45.300Z,15.25
2022-09-25T02:51:56.220Z,14.55
2022-09-25T02:57:07.085Z,14.90
2022-09-25T03:02:13.033Z,14.25
2022-09-25T03:07:16.969Z,15.38
2022-09-25T03:12:19.509Z,18.38
2022-09-25T03:17:23.702Z,17.10
2022-09-25T03:22:26.134Z,18.48
2022-09-25T03:27:30.036Z,15.88
2022-09-25T03:32:33.879Z,19.42
2022-09-25T03:37:36.412Z,16.83
2022-09-25T03:42:39.176Z,19.45
2022-09-25T03:47:42.930Z,18.65
2022-09-25T03:52:45.436Z,16.07
2022-09-25T03:57:48.133Z,19.55
2022-09-25T04:02:52.087Z,17.48
2022-09-25T04:07:54.672Z,18.90
2022-09-25T04:12:57.449Z,19.48
2022-09-25T04:18:05.910Z,17.40
2022-09-25T04:23:08.802Z,15.00
2022-09-25T04:28:11.426Z,17.20
2022-09-25T04:33:47.497Z,15.13
2022-09-25T04:38:50.634Z,16.73
2022-09-25T04:43:53.093Z,15.93
2022-09-25T04:48:59.271Z,16.70
2022-09-25T04:54:01.789Z,17.55
2022-09-25T04:59:04.437Z,16.23
2022-09-25T05:04:09.012Z,15.45
2022-09-25T05:09:11.842Z,15.85
2022-09-25T05:14:14.394Z,17.40
2022-09-25T05:19:18.207Z,17.25
2022-09-25T05:24:20.864Z,16.90
2022-09-25T05:29:23.565Z,16.50
2022-09-25T05:34:28.080Z,17.65
2022-09-25T05:44:33.203Z,16.90
2022-09-25T05:49:37.196Z,19.65
2022-09-25T05:54:39.650Z,18.63
2022-09-25T05:59:42.094Z,20.65
2022-09-25T06:04:45.865Z,20.70
2022-09-25T06:09:48.271Z,19.17
2022-09-25T06:14:51.686Z,19.90
2022-09-25T06:19:55.588Z,15.32
2022-09-25T06:24:58.060Z,11.98
2022-09-25T06:30:00.977Z,17.23
2022-09-25T06:35:05.632Z,17.33
2022-09-25T06:40:09.851Z,17.45
2022-09-25T06:45:12.596Z,15.95
2022-09-25T06:50:16.449Z,15.05
2022-09-25T06:55:18.907Z,19.10
2022-09-25T07:00:21.503Z,16.63
2022-09-25T07:05:25.540Z,19.05
2022-09-25T07:10:28.622Z,18.98
2022-09-25T07:15:31.200Z,19.35
2022-09-25T07:20:35.264Z,19.55
2022-09-25T07:25:37.717Z,18.40
2022-09-25T07:30:40.400Z,16.73
2022-09-25T07:35:44.245Z,17.90
2022-09-25T07:40:53.790Z,20.50
2022-09-25T07:45:56.389Z,20.30
2022-09-25T07:51:02.535Z,20.20
2022-09-25T07:56:07.094Z,22.58
2022-09-25T08:01:24.781Z,26.38
2022-09-25T08:06:29.015Z,33.95
2022-09-25T08:11:31.646Z,30.30
2022-09-25T08:16:34.139Z,28.63
2022-09-25T08:21:38.000Z,29.00
2022-09-25T08:26:40.539Z,28.05
2022-09-25T08:31:43.882Z,28.90
2022-09-25T08:36:51.873Z,32.25
2022-09-25T08:41:56.212Z,25.58
2022-09-25T08:52:24.614Z,19.98
2022-09-25T08:57:35.258Z,22.40
2022-09-25T09:02:42.710Z,19.05
2022-09-25T09:07:52.069Z,18.05
2022-09-25T09:12:59.486Z,17.15
2022-09-25T09:18:06.678Z,13.95
2022-09-25T09:23:17.525Z,14.20
2022-09-25T09:28:46.488Z,14.30
2022-09-25T09:33:58.965Z,14.27
2022-09-25T09:39:11.646Z,13.38
2022-09-25T09:44:34.756Z,13.35
2022-09-25T09:49:45.242Z,15.52
2022-09-25T09:54:53.808Z,12.95
2022-09-25T10:00:04.689Z,12.07
2022-09-25T10:05:13.778Z,10.90
2022-09-25T10:10:19.622Z,10.38
2022-09-25T10:15:33.820Z,13.52
2022-09-25T10:20:42.075Z,11.27
2022-09-25T10:25:46.050Z,11.38
2022-09-25T10:30:51.423Z,10.70
2022-09-25T10:35:56.250Z,13.50
2022-09-25T10:41:04.408Z,13.05
2022-09-25T10:46:12.113Z,13.40
2022-09-25T10:51:17.532Z,10.52
2022-09-25T10:56:27.736Z,10.95
2022-09-25T11:01:35.905Z,10.00
2022-09-25T11:06:45.082Z,11.77
2022-09-25T11:11:50.399Z,10.55
2022-09-25T11:16:57.451Z,11.05
2022-09-25T11:22:16.889Z,10.75
2022-09-25T11:27:27.407Z,9.60
2022-09-25T11:32:35.580Z,11.85
2022-09-25T11:37:42.195Z,11.73
2022-09-25T11:42:53.050Z,12.82
2022-09-25T11:48:02.195Z,14.50
2022-09-25T11:53:16.069Z,10.10
2022-09-25T11:58:43.010Z,10.65
2022-09-25T12:04:04.991Z,17.13
2022-09-25T12:09:20.264Z,7.95
2022-09-25T12:14:28.590Z,7.63
2022-09-25T12:19:39.568Z,9.05
2022-09-25T12:24:55.386Z,9.30
2022-09-25T12:30:11.771Z,9.52
2022-09-25T12:35:26.889Z,8.80
2022-09-25T12:40:34.427Z,13.35
2022-09-25T12:45:43.091Z,7.95
2022-09-25T12:50:52.616Z,7.47
2022-09-25T12:56:04.005Z,9.45
2022-09-25T13:01:14.279Z,8.30
2022-09-25T13:06:23.351Z,10.13
2022-09-25T13:11:38.253Z,10.57
2022-09-25T13:16:42.076Z,9.60
2022-09-25T13:21:44.848Z,10.07
2022-09-25T13:26:52.773Z,8.57
2022-09-25T13:32:06.111Z,8.40
2022-09-25T13:37:11.404Z,8.70
2022-09-25T13:42:21.514Z,8.10
2022-09-25T13:47:57.214Z,7.95
2022-09-25T13:53:20.331Z,7.82
2022-09-25T14:03:35.759Z,7.63
2022-09-25T14:08:48.768Z,6.50
2022-09-25T14:13:56.757Z,8.02
2022-09-25T14:19:04.506Z,9.60
2022-09-25T14:24:20.147Z,7.85
2022-09-25T14:29:27.929Z,6.00
2022-09-25T14:34:45.984Z,8.40
2022-09-25T14:39:58.626Z,6.60
2022-09-25T14:45:20.973Z,7.85
2022-09-25T14:50:32.832Z,7.65
2022-09-25T14:55:38.487Z,10.07
2022-09-25T15:00:49.142Z,7.55
2022-09-25T15:05:53.322Z,8.52
2022-09-25T15:11:11.985Z,10.48
2022-09-25T15:16:35.819Z,8.68
2022-09-25T15:21:43.779Z,8.23
2022-09-25T15:26:50.615Z,8.60
2022-09-25T15:31:53.460Z,10.38
2022-09-25T15:37:18.869Z,10.95
2022-09-25T15:42:21.962Z,8.43
2022-09-25T15:47:50.885Z,9.75
2022-09-25T15:52:56.667Z,5.75
2022-09-25T15:58:08.335Z,5.20
2022-09-25T16:03:35.106Z,5.53
2022-09-25T16:08:42.163Z,9.95
2022-09-25T16:13:48.639Z,7.20
2022-09-25T16:18:54.409Z,5.25
2022-09-25T16:24:00.828Z,6.35
2022-09-25T16:29:22.161Z,7.07
2022-09-25T16:34:30.930Z,4.22
2022-09-25T16:39:37.372Z,6.30
2022-09-25T16:44:46.948Z,8.13
2022-09-25T16:49:50.112Z,7.88
2022-09-25T16:54:57.566Z,8.35
2022-09-25T17:00:00.097Z,7.10
2022-09-25T17:05:04.753Z,6.15
2022-09-25T17:10:16.001Z,5.57
2022-09-25T17:15:22.172Z,6.85
2022-09-25T17:20:26.140Z,6.07
2022-09-25T17:25:39.242Z,5.90
2022-09-25T17:30:43.223Z,5.28
2022-09-25T17:35:49.469Z,5.15
2022-09-25T17:40:54.969Z,5.93
2022-09-25T17:45:58.973Z,6.38
2022-09-25T17:51:02.900Z,5.82
2022-09-25T17:56:07.469Z,5.90
2022-09-25T18:01:14.722Z,4.95
2022-09-25T18:06:17.206Z,5.43
2022-09-25T18:11:21.707Z,5.85
2022-09-25T18:16:28.874Z,8.88
2022-09-25T18:21:48.968Z,6.15
2022-09-25T18:26:54.164Z,4.80
2022-09-25T18:31:56.622Z,6.15
2022-09-25T18:36:59.144Z,6.43
2022-09-25T18:42:03.145Z,8.07
2022-09-25T18:47:06.611Z,7.50
2022-09-25T18:52:09.148Z,6.80
2022-09-25T18:57:13.818Z,6.18
2022-09-25T19:02:20.910Z,5.63
2022-09-25T19:07:24.204Z,5.68
2022-09-25T19:12:28.070Z,5.38
2022-09-25T19:17:31.076Z,6.03
2022-09-25T19:22:33.841Z,7.25
2022-09-25T19:27:37.999Z,8.23
2022-09-25T19:32:40.509Z,11.23
2022-09-25T19:37:42.992Z,13.85
2022-09-25T19:42:47.612Z,9.80
2022-09-25T19:47:50.064Z,10.90
2022-09-25T19:52:52.748Z,12.18
2022-09-25T19:57:56.556Z,10.50
2022-09-25T20:02:59.093Z,10.93
2022-09-25T20:08:02.159Z,12.13
2022-09-25T20:13:06.651Z,11.77
2022-09-25T20:23:11.633Z,8.25
2022-09-25T20:28:17.066Z,9.25
2022-09-25T20:33:19.540Z,9.63
2022-09-25T20:38:22.063Z,10.40
2022-09-25T20:43:26.093Z,11.05
2022-09-25T20:48:28.529Z,10.65
2022-09-25T20:53:31.057Z,8.77
2022-09-25T20:58:35.741Z,9.82
2022-09-25T21:03:40.186Z,11.25
2022-09-25T21:13:50.436Z,11.32
2022-09-25T21:18:56.567Z,9.43
2022-09-25T21:23:59.704Z,9.98
2022-09-25T21:29:05.765Z,10.27
2022-09-25T21:34:12.035Z,11.45
2022-09-25T21:39:14.917Z,12.38
2022-09-25T21:44:21.372Z,9.60
2022-09-25T21:49:23.892Z,9.73
2022-09-25T21:54:26.407Z,10.77
2022-09-25T21:59:30.260Z,11.50
2022-09-25T22:04:32.704Z,10.05
2022-09-25T22:09:35.188Z,13.25
2022-09-25T22:14:39.570Z,11.90
2022-09-25T22:19:42.063Z,13.90
2022-09-25T22:24:44.548Z,11.70
2022-09-25T22:29:48.637Z,9.02
2022-09-25T22:34:51.068Z,10.75
2022-09-25T22:39:53.505Z,10.98
2022-09-25T22:44:57.544Z,11.52
2022-09-25T22:50:00.355Z,10.77
2022-09-25T22:55:03.323Z,11.30
2022-09-25T23:00:08.983Z,9.38
2022-09-25T23:05:11.470Z,8.65
2022-09-25T23:10:14.054Z,9.65
2022-09-25T23:15:18.096Z,11.15
2022-09-25T23:20:20.531Z,10.45
2022-09-25T23:25:23.501Z,9.15
2022-09-25T23:30:27.872Z,10.07
2022-09-25T23:40:36.977Z,9.32
2022-09-25T23:45:42.142Z,9.27
2022-09-25T23:50:44.986Z,10.75
2022-09-25T23:55:47.552Z,9.00
